createdAt,value
2023-05-09T00:03:06.040Z,58.27
2023-05-09T00:06:10.230Z,58.07
2023-05-09T00:09:13.879Z,58.01
2023-05-09T00:12:17.662Z,58.05
2023-05-09T00:15:22.575Z,57.92
2023-05-09T00:18:26.305Z,58.55
2023-05-09T00:21:30.377Z,58.90
2023-05-09T00:24:34.244Z,58.71
2023-05-09T00:27:38.606Z,59.03
2023-05-09T00:30:43.955Z,59.25
2023-05-09T00:33:48.558Z,59.03
2023-05-09T00:36:52.251Z,59.45
2023-05-09T00:39:55.754Z,58.75
2023-05-09T00:43:00.666Z,58.80
2023-05-09T00:46:06.072Z,58.77
2023-05-09T00:49:09.932Z,59.61
2023-05-09T00:52:13.664Z,59.62
2023-05-09T00:55:41.586Z,59.44
2023-05-09T00:58:45.459Z,59.66
2023-05-09T01:01:49.497Z,59.85
2023-05-09T01:04:53.674Z,59.80
2023-05-09T01:08:08.787Z,60.12
2023-05-09T01:11:27.778Z,59.60
2023-05-09T01:14:41.893Z,59.65
2023-05-09T01:17:58.269Z,60.90
2023-05-09T01:21:08.870Z,60.29
2023-05-09T01:24:39.962Z,60.93
2023-05-09T01:27:58.836Z,62.16
2023-05-09T01:31:07.337Z,60.24
2023-05-09T01:34:15.616Z,60.31
2023-05-09T01:37:25.590Z,60.45
2023-05-09T01:40:35.028Z,60.18
2023-05-09T01:43:41.647Z,60.68
2023-05-09T01:46:48.503Z,60.48
2023-05-09T01:49:55.090Z,60.47
2023-05-09T01:53:02.970Z,60.96
2023-05-09T01:56:09.506Z,61.33
2023-05-09T01:59:16.453Z,61.72
2023-05-09T02:02:22.873Z,61.05
2023-05-09T02:05:30.766Z,61.34
2023-05-09T02:08:35.741Z,61.36
2023-05-09T02:11:39.508Z,61.60
2023-05-09T02:14:43.345Z,61.89
2023-05-09T02:17:48.698Z,61.92
2023-05-09T02:20:52.563Z,62.04
2023-05-09T02:23:56.119Z,61.76
2023-05-09T02:27:00.150Z,62.13
2023-05-09T02:30:10.516Z,62.10
2023-05-09T02:33:15.809Z,62.47
2023-05-09T02:36:21.055Z,62.38
2023-05-09T02:39:24.844Z,62.36
2023-05-09T02:42:30.173Z,62.34
2023-05-09T02:45:34.004Z,62.72
2023-05-09T02:48:40.477Z,62.85
2023-05-09T02:51:44.237Z,62.65
2023-05-09T02:54:48.836Z,62.80
2023-05-09T02:58:01.920Z,62.72
2023-05-09T03:01:13.279Z,62.73
2023-05-09T03:04:19.842Z,63.01
2023-05-09T03:07:23.571Z,62.88
2023-05-09T03:10:27.274Z,63.12
2023-05-09T03:13:31.050Z,63.20
2023-05-09T03:16:35.660Z,63.13
2023-05-09T03:19:41.571Z,63.48
2023-05-09T03:22:45.345Z,63.15
2023-05-09T03:25:49.323Z,62.94
2023-05-09T03:28:53.359Z,63.07
2023-05-09T03:31:57.097Z,63.32
2023-05-09T03:35:02.255Z,63.27
2023-05-09T03:38:06.260Z,63.05
2023-05-09T03:41:10.519Z,63.35
2023-05-09T03:44:15.231Z,63.40
2023-05-09T03:47:18.665Z,63.32
2023-05-09T03:50:23.953Z,63.51
2023-05-09T03:53:29.196Z,63.61
2023-05-09T03:56:33.643Z,63.22
2023-05-09T03:59:37.134Z,63.41
2023-05-09T04:02:41.812Z,63.33
2023-05-09T04:05:51.518Z,63.65
2023-05-09T04:09:10.033Z,63.41
2023-05-09T04:12:13.898Z,63.46
2023-05-09T04:15:18.988Z,63.22
2023-05-09T04:18:22.960Z,63.09
2023-05-09T04:21:28.784Z,63.06
2023-05-09T04:24:35.923Z,63.48
2023-05-09T04:27:39.806Z,62.60
2023-05-09T04:30:43.541Z,62.97
2023-05-09T04:33:47.697Z,63.07
2023-05-09T04:36:53.123Z,62.51
2023-05-09T04:39:57.598Z,62.76
2023-05-09T04:43:07.796Z,61.51
2023-05-09T04:46:12.649Z,61.69
2023-05-09T04:49:16.117Z,62.10
2023-05-09T04:52:21.471Z,61.81
2023-05-09T04:55:25.075Z,61.10
2023-05-09T04:58:29.532Z,60.79
2023-05-09T05:01:33.571Z,61.94
2023-05-09T05:04:37.845Z,62.61
2023-05-09T05:07:43.163Z,62.20
2023-05-09T05:10:49.682Z,62.36
2023-05-09T05:13:54.014Z,62.21
2023-05-09T05:16:58.823Z,61.88
2023-05-09T05:20:03.033Z,61.75
2023-05-09T05:23:10.168Z,61.80
2023-05-09T05:26:14.390Z,60.49
2023-05-09T05:29:18.440Z,61.74
2023-05-09T05:32:22.108Z,60.75
2023-05-09T05:35:28.262Z,61.35
2023-05-09T05:38:34.243Z,60.84
2023-05-09T05:41:38.191Z,59.79
2023-05-09T05:44:43.213Z,60.96
2023-05-09T05:47:48.158Z,60.36
2023-05-09T05:50:52.143Z,60.48
2023-05-09T05:54:01.269Z,59.98
2023-05-09T05:57:05.074Z,60.17
2023-05-09T06:00:11.597Z,60.21
2023-05-09T06:03:20.738Z,60.32
2023-05-09T06:06:29.672Z,59.92
2023-05-09T06:09:34.518Z,60.27
2023-05-09T06:12:38.508Z,59.70
2023-05-09T06:15:43.688Z,60.26
2023-05-09T06:18:47.586Z,59.67
2023-05-09T06:21:50.992Z,59.81
2023-05-09T06:24:56.050Z,59.34
2023-05-09T06:27:59.444Z,59.01
2023-05-09T06:31:03.246Z,59.25
2023-05-09T06:34:06.758Z,59.17
2023-05-09T06:37:10.800Z,58.96
2023-05-09T06:40:15.643Z,58.92
2023-05-09T06:43:19.378Z,58.87
2023-05-09T06:46:22.866Z,58.73
2023-05-09T06:49:26.821Z,58.04
2023-05-09T06:52:30.285Z,58.18
2023-05-09T06:55:35.675Z,58.04
2023-05-09T06:58:39.385Z,58.03
2023-05-09T07:01:43.137Z,57.21
2023-05-09T07:04:46.856Z,57.64
2023-05-09T07:07:51.140Z,57.10
2023-05-09T07:10:56.283Z,57.40
2023-05-09T07:14:00.155Z,56.99
2023-05-09T07:17:18.754Z,56.81
2023-05-09T07:20:26.319Z,56.56
2023-05-09T07:23:29.671Z,56.42
2023-05-09T07:26:37.040Z,56.40
2023-05-09T07:29:40.445Z,55.39
2023-05-09T07:32:44.278Z,55.34
2023-05-09T07:35:47.700Z,55.53
2023-05-09T07:38:52.860Z,54.93
2023-05-09T07:41:57.602Z,54.52
2023-05-09T07:45:01.271Z,53.36
2023-05-09T07:48:04.999Z,53.97
2023-05-09T07:51:08.665Z,52.98
2023-05-09T07:54:12.039Z,53.50
2023-05-09T07:57:17.223Z,52.29
2023-05-09T08:00:23.768Z,51.87
2023-05-09T08:03:27.637Z,51.41
2023-05-09T08:06:31.067Z,51.67
2023-05-09T08:09:34.651Z,51.43
2023-05-09T08:12:40.043Z,51.03
2023-05-09T08:15:43.805Z,51.39
2023-05-09T08:18:47.532Z,51.52
2023-05-09T08:21:51.167Z,50.58
2023-05-09T08:24:54.568Z,51.07
2023-05-09T08:27:59.861Z,50.04
2023-05-09T08:31:03.911Z,49.46
2023-05-09T08:34:07.754Z,50.16
2023-05-09T08:37:12.948Z,49.97
2023-05-09T08:40:18.965Z,49.19
2023-05-09T08:43:25.528Z,48.90
2023-05-09T08:46:35.072Z,48.87
2023-05-09T08:49:38.794Z,49.58
2023-05-09T08:52:43.514Z,48.79
2023-05-09T08:55:47.390Z,48.76
2023-05-09T08:58:53.708Z,48.50
2023-05-09T09:01:58.373Z,48.08
2023-05-09T09:05:02.939Z,48.54
2023-05-09T09:08:11.847Z,47.75
2023-05-09T09:11:18.662Z,47.92
2023-05-09T09:14:26.711Z,47.54
2023-05-09T09:17:34.289Z,47.63
2023-05-09T09:20:44.642Z,47.40
2023-05-09T09:23:50.802Z,47.12
2023-05-09T09:26:54.226Z,47.04
2023-05-09T09:30:08.673Z,46.58
2023-05-09T09:33:20.920Z,46.38
2023-05-09T09:36:29.184Z,46.09
2023-05-09T09:39:32.595Z,46.49
2023-05-09T09:42:43.869Z,44.90
2023-05-09T09:45:51.717Z,45.57
2023-05-09T09:48:57.633Z,46.15
2023-05-09T09:52:01.033Z,45.09
2023-05-09T09:55:05.354Z,45.45
2023-05-09T09:58:18.764Z,44.77
2023-05-09T10:01:24.613Z,44.98
2023-05-09T10:04:32.202Z,44.46
2023-05-09T10:07:36.853Z,43.76
2023-05-09T10:10:40.201Z,43.22
2023-05-09T10:13:45.554Z,43.33
2023-05-09T10:16:53.846Z,43.56
2023-05-09T10:19:58.023Z,43.54
2023-05-09T10:23:05.018Z,43.49
2023-05-09T10:26:19.231Z,43.12
2023-05-09T10:29:28.381Z,42.74
2023-05-09T10:32:44.795Z,42.73
2023-05-09T10:35:49.157Z,42.76
2023-05-09T10:38:55.349Z,42.22
2023-05-09T10:42:01.774Z,41.84
2023-05-09T10:45:08.344Z,41.99
2023-05-09T10:48:14.596Z,41.58
2023-05-09T10:51:19.487Z,41.72
2023-05-09T10:54:30.863Z,41.52
2023-05-09T10:57:40.127Z,41.51
2023-05-09T11:00:44.391Z,41.83
2023-05-09T11:03:57.966Z,41.84
2023-05-09T11:07:02.054Z,41.50
2023-05-09T11:10:11.058Z,41.42
2023-05-09T11:13:14.670Z,41.02
2023-05-09T11:16:18.378Z,41.03
2023-05-09T11:19:38.638Z,39.57
2023-05-09T11:22:43.989Z,40.46
2023-05-09T11:25:49.044Z,40.88
2023-05-09T11:28:56.925Z,40.66
2023-05-09T11:32:07.423Z,40.83
2023-05-09T11:35:15.935Z,40.13
2023-05-09T11:38:22.987Z,40.04
2023-05-09T11:41:28.245Z,40.30
2023-05-09T11:44:33.505Z,39.75
2023-05-09T11:47:38.728Z,39.94
2023-05-09T11:50:43.655Z,38.89
2023-05-09T11:53:51.426Z,39.02
2023-05-09T11:56:54.856Z,39.23
2023-05-09T12:00:01.566Z,39.14
2023-05-09T12:03:07.382Z,38.69
2023-05-09T12:06:17.455Z,38.53
2023-05-09T12:09:21.164Z,38.71
2023-05-09T12:12:24.951Z,38.95
2023-05-09T12:15:28.306Z,38.42
2023-05-09T12:18:31.935Z,37.81
2023-05-09T12:21:36.936Z,37.77
2023-05-09T12:24:40.558Z,38.06
2023-05-09T12:27:44.035Z,38.44
2023-05-09T12:30:48.068Z,37.21
2023-05-09T12:33:51.819Z,37.71
2023-05-09T12:36:58.495Z,37.09
2023-05-09T12:40:04.210Z,37.10
2023-05-09T12:43:08.973Z,37.11
2023-05-09T12:46:12.626Z,36.64
2023-05-09T12:49:22.157Z,35.54
2023-05-09T12:52:34.291Z,35.35
2023-05-09T12:55:42.333Z,32.42
2023-05-09T12:58:53.419Z,27.90
2023-05-09T13:01:59.410Z,25.24
2023-05-09T13:05:11.413Z,23.45
2023-05-09T13:08:16.598Z,24.09
2023-05-09T13:11:20.811Z,22.40
2023-05-09T13:14:24.845Z,21.43
2023-05-09T13:17:28.341Z,19.91
2023-05-09T13:20:32.149Z,19.46
2023-05-09T13:23:37.527Z,19.32
2023-05-09T13:26:41.247Z,19.24
2023-05-09T13:29:44.706Z,17.81
2023-05-09T13:32:48.574Z,17.93
2023-05-09T13:35:52.514Z,17.72
2023-05-09T13:38:57.581Z,17.19
2023-05-09T13:42:01.156Z,16.24
2023-05-09T13:45:05.946Z,16.65
2023-05-09T13:48:09.603Z,16.37
2023-05-09T13:51:13.916Z,16.67
2023-05-09T13:54:19.768Z,16.66
2023-05-09T13:57:23.810Z,16.34
2023-05-09T14:00:27.591Z,15.77
2023-05-09T14:03:31.935Z,15.83
2023-05-09T14:06:35.614Z,14.59
2023-05-09T14:09:40.779Z,14.97
2023-05-09T14:12:46.658Z,15.05
2023-05-09T14:15:50.507Z,15.26
2023-05-09T14:18:54.054Z,15.28
2023-05-09T14:21:57.827Z,15.04
2023-05-09T14:25:02.873Z,14.96
2023-05-09T14:28:09.223Z,16.06
2023-05-09T14:31:13.347Z,16.16
2023-05-09T14:34:17.142Z,15.77
2023-05-09T14:37:20.501Z,15.17
2023-05-09T14:40:25.567Z,15.29
2023-05-09T14:43:29.371Z,14.90
2023-05-09T14:46:33.413Z,14.35
2023-05-09T14:49:39.707Z,14.52
2023-05-09T14:52:45.012Z,15.13
2023-05-09T14:55:49.882Z,14.83
2023-05-09T14:58:53.500Z,15.22
2023-05-09T15:01:57.364Z,15.00
2023-05-09T15:05:01.076Z,14.76
2023-05-09T15:08:05.055Z,14.44
2023-05-09T15:11:10.097Z,14.95
2023-05-09T15:14:13.768Z,14.54
2023-05-09T15:17:17.457Z,15.11
2023-05-09T15:20:21.236Z,14.93
2023-05-09T15:23:24.928Z,14.89
2023-05-09T15:26:30.248Z,15.28
2023-05-09T15:29:33.987Z,15.18
2023-05-09T15:32:41.283Z,15.64
2023-05-09T15:35:45.187Z,15.47
2023-05-09T15:38:49.752Z,15.18
2023-05-09T15:41:55.036Z,15.42
2023-05-09T15:44:58.569Z,15.27
2023-05-09T15:48:02.265Z,15.31
2023-05-09T15:51:06.399Z,15.77
2023-05-09T15:54:10.282Z,16.59
2023-05-09T15:57:16.765Z,16.04
2023-05-09T16:00:20.830Z,16.30
2023-05-09T16:03:24.821Z,17.05
2023-05-09T16:06:29.332Z,16.71
2023-05-09T16:09:32.948Z,17.26
2023-05-09T16:12:38.009Z,17.19
2023-05-09T16:15:41.416Z,17.53
2023-05-09T16:18:45.129Z,17.84
2023-05-09T16:21:48.629Z,19.50
2023-05-09T16:24:52.465Z,19.24
2023-05-09T16:27:57.438Z,18.60
2023-05-09T16:31:04.809Z,18.58
2023-05-09T16:34:08.450Z,18.38
2023-05-09T16:37:12.650Z,18.92
2023-05-09T16:40:16.704Z,18.54
2023-05-09T16:43:22.081Z,19.05
2023-05-09T16:46:25.639Z,19.42
2023-05-09T16:49:29.354Z,19.41
2023-05-09T16:52:32.865Z,19.82
2023-05-09T16:55:36.649Z,20.48
2023-05-09T16:58:41.857Z,20.75
2023-05-09T17:01:46.438Z,21.12
2023-05-09T17:04:49.884Z,21.22
2023-05-09T17:07:53.914Z,21.54
2023-05-09T17:10:57.644Z,22.00
2023-05-09T17:14:04.694Z,22.21
2023-05-09T17:17:08.163Z,22.35
2023-05-09T17:20:13.444Z,22.53
2023-05-09T17:23:17.110Z,23.15
2023-05-09T17:26:20.965Z,23.60
2023-05-09T17:29:26.612Z,24.38
2023-05-09T17:32:30.338Z,24.98
2023-05-09T17:35:33.887Z,25.83
2023-05-09T17:38:37.560Z,26.64
2023-05-09T17:41:41.478Z,27.87
2023-05-09T17:44:47.242Z,28.51
2023-05-09T17:47:50.734Z,29.30
2023-05-09T17:50:54.446Z,29.52
2023-05-09T17:53:57.980Z,30.22
2023-05-09T17:57:02.225Z,30.67
2023-05-09T18:00:09.289Z,31.31
2023-05-09T18:03:18.918Z,31.53
2023-05-09T18:06:22.520Z,31.48
2023-05-09T18:09:26.515Z,32.13
2023-05-09T18:12:31.110Z,31.99
2023-05-09T18:15:38.402Z,32.68
2023-05-09T18:18:41.958Z,33.27
2023-05-09T18:21:45.609Z,33.33
2023-05-09T18:24:49.897Z,32.80
2023-05-09T18:27:53.520Z,34.02
2023-05-09T18:31:00.462Z,34.41
2023-05-09T18:34:04.586Z,34.04
2023-05-09T18:37:08.534Z,34.32
2023-05-09T18:40:15.804Z,34.98
2023-05-09T18:43:20.797Z,35.78
2023-05-09T18:46:27.958Z,35.16
2023-05-09T18:49:31.508Z,36.11
2023-05-09T18:52:35.387Z,35.40
2023-05-09T18:55:38.974Z,35.89
2023-05-09T18:58:42.751Z,36.10
2023-05-09T19:01:47.500Z,36.76
2023-05-09T19:04:51.668Z,36.58
2023-05-09T19:07:55.286Z,37.12
2023-05-09T19:10:59.203Z,37.24
2023-05-09T19:14:02.847Z,37.27
2023-05-09T19:17:08.437Z,37.38
2023-05-09T19:20:13.991Z,37.47
2023-05-09T19:23:17.978Z,37.78
2023-05-09T19:26:21.999Z,37.86
2023-05-09T19:29:25.717Z,37.50
2023-05-09T19:32:30.689Z,38.81
2023-05-09T19:35:34.349Z,38.64
2023-05-09T19:38:37.848Z,38.42
2023-05-09T19:41:41.919Z,39.08
2023-05-09T19:44:46.490Z,39.66
2023-05-09T19:47:51.862Z,38.72
2023-05-09T19:50:58.994Z,39.74
2023-05-09T19:54:03.457Z,39.28
2023-05-09T19:57:06.915Z,39.75
2023-05-09T20:00:12.160Z,39.37
2023-05-09T20:03:17.723Z,40.49
2023-05-09T20:06:22.012Z,39.92
2023-05-09T20:09:25.391Z,40.15
2023-05-09T20:12:30.260Z,40.40
2023-05-09T20:15:33.918Z,40.56
2023-05-09T20:18:39.157Z,40.86
2023-05-09T20:21:42.708Z,40.91
2023-05-09T20:24:46.505Z,41.01
2023-05-09T20:27:50.003Z,41.20
2023-05-09T20:30:53.702Z,41.27
2023-05-09T20:33:59.227Z,41.35
2023-05-09T20:37:04.189Z,41.72
2023-05-09T20:40:09.481Z,41.81
2023-05-09T20:43:13.109Z,41.61
2023-05-09T20:46:17.365Z,42.17
2023-05-09T20:49:22.781Z,42.42
2023-05-09T20:52:26.441Z,41.63
2023-05-09T20:55:30.310Z,41.98
2023-05-09T20:58:35.709Z,42.51
2023-05-09T21:01:41.930Z,42.57
2023-05-09T21:04:47.035Z,42.75
2023-05-09T21:07:51.180Z,42.26
2023-05-09T21:10:54.703Z,42.20
2023-05-09T21:13:58.354Z,42.71
2023-05-09T21:17:02.058Z,42.75
2023-05-09T21:20:10.415Z,43.75
2023-05-09T21:23:14.340Z,42.91
2023-05-09T21:26:18.053Z,42.97
2023-05-09T21:29:21.718Z,42.93
2023-05-09T21:32:25.424Z,43.03
2023-05-09T21:35:30.689Z,43.18
2023-05-09T21:38:34.531Z,42.98
2023-05-09T21:41:39.757Z,43.28
2023-05-09T21:44:43.405Z,43.31
2023-05-09T21:47:47.014Z,43.55
2023-05-09T21:50:52.168Z,43.65
2023-05-09T21:53:55.904Z,43.89
2023-05-09T21:56:59.584Z,43.62
2023-05-09T22:00:05.309Z,43.48
2023-05-09T22:03:16.714Z,43.30
2023-05-09T22:06:21.592Z,43.99
2023-05-09T22:09:25.295Z,44.11
2023-05-09T22:12:28.762Z,43.89
2023-05-09T22:15:32.392Z,43.79
2023-05-09T22:18:36.100Z,44.29
2023-05-09T22:21:41.187Z,44.38
2023-05-09T22:24:44.633Z,44.11
2023-05-09T22:27:48.312Z,43.83
2023-05-09T22:30:51.878Z,44.56
2023-05-09T22:33:55.570Z,43.99
2023-05-09T22:37:00.444Z,44.08
2023-05-09T22:40:04.893Z,44.48
2023-05-09T22:43:10.496Z,44.14
2023-05-09T22:46:14.224Z,44.67
2023-05-09T22:49:17.660Z,44.59
2023-05-09T22:52:23.174Z,44.43
2023-05-09T22:55:26.584Z,44.31
2023-05-09T22:58:30.237Z,44.93
2023-05-09T23:01:33.699Z,44.41
2023-05-09T23:04:37.397Z,44.63
2023-05-09T23:07:42.364Z,44.82
2023-05-09T23:10:46.173Z,44.88
2023-05-09T23:13:49.713Z,44.90
2023-05-09T23:16:53.459Z,45.24
2023-05-09T23:19:56.910Z,44.77
2023-05-09T23:23:03.583Z,44.98
2023-05-09T23:26:07.068Z,44.99
2023-05-09T23:29:10.723Z,44.73
2023-05-09T23:32:14.188Z,45.01
2023-05-09T23:35:19.160Z,45.34
2023-05-09T23:38:24.127Z,45.37
2023-05-09T23:41:27.783Z,45.51
2023-05-09T23:44:31.609Z,45.19
2023-05-09T23:47:35.407Z,45.49
2023-05-09T23:50:38.915Z,44.97
2023-05-09T23:53:43.931Z,45.43
2023-05-09T23:56:47.816Z,45.58
2023-05-09T23:59:51.406Z,45.32
